Time,TemperatureF,DewpointF,PressureIn,WindDirection,WindDirectionDegrees,WindSpeedMPH,WindSpeedGustMPH,Humidity,HourlyPrecipIn,Conditions,Clouds,dailyrainin,SoftwareType,DateUTC
2013-02-07 00:05:00,24.4,15.1,29.28,NW,315,0.0,0.0,67,0.00,,,0.00,meteohub,2013-02-07 06:05:00,
2013-02-07 00:10:00,24.8,15.8,29.28,WNW,292,0.0,0.0,68,0.00,,,0.00,meteohub,2013-02-07 06:10:00,
2013-02-07 00:15:00,25.0,15.6,29.28,North,0,0.0,0.0,67,0.00,,,0.00,meteohub,2013-02-07 06:15:00,
2013-02-07 00:20:00,25.0,16.0,29.28,North,0,0.0,0.0,68,0.00,,,0.00,meteohub,2013-02-07 06:20:00,
2013-02-07 00:25:00,25.3,16.3,29.25,North,0,0.0,0.0,68,0.00,,,0.00,meteohub,2013-02-07 06:25:00,
2013-02-07 00:30:00,25.3,16.3,29.25,West,270,0.0,0.0,68,0.00,,,0.00,meteohub,2013-02-07 06:30:00,
2013-02-07 00:35:00,25.5,16.5,29.25,South,180,0.0,0.0,68,0.00,,,0.00,meteohub,2013-02-07 06:35:00,
2013-02-07 00:40:00,25.5,16.7,29.22,South,180,0.0,0.0,69,0.00,,,0.00,meteohub,2013-02-07 06:40:00,
2013-02-07 00:46:00,25.7,16.9,29.22,South,180,0.0,0.0,69,0.00,,,0.00,meteohub,2013-02-07 06:46:00,
2013-02-07 00:51:00,25.7,16.9,29.22,South,180,0.0,0.0,69,0.00,,,0.00,meteohub,2013-02-07 06:51:00,
2013-02-07 00:56:00,25.9,17.1,29.25,South,180,0.0,0.0,69,0.00,,,0.00,meteohub,2013-02-07 06:56:00,
2013-02-07 01:01:00,26.1,17.6,29.25,South,180,0.0,0.0,70,0.00,,,0.00,meteohub,2013-02-07 07:01:00,
2013-02-07 01:06:00,26.1,17.2,29.25,South,180,0.0,0.0,69,0.00,,,0.00,meteohub,2013-02-07 07:06:00,
2013-02-07 01:11:00,26.2,17.4,29.25,South,180,0.0,0.0,69,0.00,,,0.00,meteohub,2013-02-07 07:11:00,
2013-02-07 01:16:00,26.2,17.4,29.25,WNW,292,0.0,0.0,69,0.00,,,0.00,meteohub,2013-02-07 07:16:00,
2013-02-07 01:21:00,26.2,17.4,29.25,WNW,292,0.0,0.0,69,0.00,,,0.00,meteohub,2013-02-07 07:21:00,
2013-02-07 01:26:00,26.2,17.4,29.28,WNW,292,0.0,0.0,69,0.00,,,0.00,meteohub,2013-02-07 07:26:00,
2013-02-07 01:31:00,26.2,17.8,29.28,NW,315,0.0,0.0,70,0.00,,,0.00,meteohub,2013-02-07 07:31:00,
2013-02-07 01:37:00,26.2,17.8,29.28,WNW,292,0.0,0.0,70,0.00,,,0.00,meteohub,2013-02-07 07:37:00,
2013-02-07 01:42:00,26.4,18.0,29.28,WNW,292,0.0,0.0,70,0.00,,,0.00,meteohub,2013-02-07 07:42:00,
2013-02-07 01:47:00,26.4,18.0,29.28,WNW,292,0.0,0.0,70,0.00,,,0.00,meteohub,2013-02-07 07:47:00,
2013-02-07 01:52:00,26.6,18.1,29.28,NW,315,0.0,0.0,70,0.00,,,0.00,meteohub,2013-02-07 07:52:00,
2013-02-07 01:57:00,26.6,18.1,29.25,NW,315,0.0,0.0,70,0.00,,,0.00,meteohub,2013-02-07 07:57:00,
2013-02-07 02:02:00,26.6,18.1,29.25,NW,315,0.0,0.0,70,0.00,,,0.00,meteohub,2013-02-07 08:02:00,
2013-02-07 02:07:00,26.6,18.1,29.25,NW,315,0.0,0.0,70,0.00,,,0.00,meteohub,2013-02-07 08:07:00,
2013-02-07 02:12:00,26.6,18.1,29.28,North,0,0.0,0.0,70,0.00,,,0.00,meteohub,2013-02-07 08:12:00,
2013-02-07 02:17:00,26.8,18.0,29.28,North,0,0.0,0.0,69,0.00,,,0.00,meteohub,2013-02-07 08:17:00,
2013-02-07 02:22:00,26.8,18.0,29.28,North,0,0.0,0.0,69,0.00,,,0.00,meteohub,2013-02-07 08:22:00,
2013-02-07 02:27:00,27.0,18.1,29.28,NNE,22,0.0,0.0,69,0.00,,,0.00,meteohub,2013-02-07 08:27:00,
2013-02-07 02:32:00,27.0,18.1,29.28,NNE,22,0.0,0.0,69,0.00,,,0.00,meteohub,2013-02-07 08:32:00,
2013-02-07 02:37:00,27.0,18.1,29.28,NNE,22,0.0,0.0,69,0.00,,,0.00,meteohub,2013-02-07 08:37:00,
2013-02-07 02:42:00,27.0,18.1,29.28,ENE,68,0.0,0.0,69,0.00,,,0.00,meteohub,2013-02-07 08:42:00,
2013-02-07 02:47:00,27.0,18.1,29.28,NE,45,0.0,0.0,69,0.00,,,0.00,meteohub,2013-02-07 08:47:00,
2013-02-07 02:52:00,27.0,18.1,29.28,NE,45,0.0,0.0,69,0.00,,,0.00,meteohub,2013-02-07 08:52:00,
2013-02-07 02:57:00,27.1,18.3,29.25,East,90,0.0,0.0,69,0.00,,,0.00,meteohub,2013-02-07 08:57:00,
2013-02-07 03:02:00,27.1,18.3,29.25,East,90,0.0,0.0,69,0.00,,,0.00,meteohub,2013-02-07 09:02:00,
2013-02-07 03:07:00,27.3,18.9,29.25,NE,45,0.0,0.0,70,0.00,,,0.00,meteohub,2013-02-07 09:07:00,
2013-02-07 03:12:00,27.3,18.9,29.25,North,0,0.0,0.0,70,0.00,,,0.00,meteohub,2013-02-07 09:12:00,
2013-02-07 03:17:00,27.3,18.9,29.25,North,0,0.0,0.0,70,0.00,,,0.00,meteohub,2013-02-07 09:17:00,
2013-02-07 03:22:00,27.5,19.0,29.25,NE,45,0.0,0.0,70,0.00,,,0.00,meteohub,2013-02-07 09:22:00,
2013-02-07 03:27:00,27.7,19.2,29.25,ENE,68,1.0,0.0,70,0.00,,,0.00,meteohub,2013-02-07 09:27:00,
2013-02-07 03:32:00,27.7,19.2,29.25,NE,45,0.0,2.0,70,0.00,,,0.00,meteohub,2013-02-07 09:32:00,
2013-02-07 03:37:00,27.9,19.4,29.25,NE,45,0.0,2.0,70,0.00,,,0.00,meteohub,2013-02-07 09:37:00,
2013-02-07 03:42:00,27.9,19.4,29.25,North,0,0.0,2.0,70,0.00,,,0.00,meteohub,2013-02-07 09:42:00,
2013-02-07 03:47:00,27.9,19.4,29.25,NE,45,0.0,2.0,70,0.00,,,0.00,meteohub,2013-02-07 09:47:00,
2013-02-07 03:52:00,28.0,19.6,29.25,East,90,0.0,2.0,70,0.00,,,0.00,meteohub,2013-02-07 09:52:00,
2013-02-07 03:57:00,28.2,19.8,29.25,ENE,68,0.0,1.0,70,0.00,,,0.00,meteohub,2013-02-07 09:57:00,
2013-02-07 04:02:00,28.2,19.8,29.25,East,90,0.0,1.0,70,0.00,,,0.00,meteohub,2013-02-07 10:02:00,
2013-02-07 04:07:00,28.4,19.9,29.25,NE,45,0.0,1.0,70,0.00,,,0.00,meteohub,2013-02-07 10:07:00,
2013-02-07 04:12:00,28.6,20.5,29.25,NE,45,0.0,0.0,71,0.00,,,0.00,meteohub,2013-02-07 10:12:00,
2013-02-07 04:17:00,28.8,20.5,29.25,East,90,1.0,2.0,71,0.00,,,0.00,meteohub,2013-02-07 10:17:00,
2013-02-07 04:22:00,28.9,20.7,29.25,East,90,0.0,3.0,71,0.00,,,0.00,meteohub,2013-02-07 10:22:00,
2013-02-07 04:27:00,29.1,20.8,29.22,East,90,0.0,3.0,71,0.00,,,0.00,meteohub,2013-02-07 10:27:00,
2013-02-07 04:32:00,29.1,20.8,29.22,ESE,112,0.0,3.0,71,0.00,,,0.00,meteohub,2013-02-07 10:32:00,
2013-02-07 04:37:00,29.1,20.8,29.22,East,90,0.0,2.0,71,0.00,,,0.00,meteohub,2013-02-07 10:37:00,
2013-02-07 04:42:00,29.3,21.0,29.22,ESE,112,0.0,0.0,71,0.00,,,0.00,meteohub,2013-02-07 10:42:00,
2013-02-07 04:47:00,29.3,21.0,29.22,ESE,112,0.0,0.0,71,0.00,,,0.00,meteohub,2013-02-07 10:47:00,
2013-02-07 04:53:00,29.3,21.0,29.22,East,90,0.0,0.0,71,0.00,,,0.00,meteohub,2013-02-07 10:53:00,
2013-02-07 04:58:00,29.3,21.0,29.22,ESE,112,0.0,0.0,71,0.00,,,0.00,meteohub,2013-02-07 10:58:00,
2013-02-07 05:03:00,29.5,21.2,29.22,East,90,0.0,0.0,71,0.00,,,0.00,meteohub,2013-02-07 11:03:00,
2013-02-07 05:08:00,29.5,21.2,29.22,ENE,68,0.0,0.0,71,0.00,,,0.00,meteohub,2013-02-07 11:08:00,
2013-02-07 05:13:00,29.5,21.2,29.22,East,90,0.0,1.0,71,0.00,,,0.00,meteohub,2013-02-07 11:13:00,
2013-02-07 05:18:00,29.5,21.2,29.22,ESE,112,0.0,3.0,71,0.00,,,0.00,meteohub,2013-02-07 11:18:00,
2013-02-07 05:23:00,29.7,21.4,29.22,East,90,0.0,3.0,71,0.00,,,0.00,meteohub,2013-02-07 11:23:00,
2013-02-07 05:28:00,29.7,21.7,29.22,ESE,112,0.0,3.0,72,0.00,,,0.00,meteohub,2013-02-07 11:28:00,
2013-02-07 05:33:00,29.8,21.9,29.22,SSW,202,0.0,3.0,72,0.00,,,0.00,meteohub,2013-02-07 11:33:00,
2013-02-07 05:39:00,29.8,21.9,29.22,SSE,158,0.0,3.0,72,0.00,,,0.00,meteohub,2013-02-07 11:39:00,
2013-02-07 05:44:00,30.0,22.1,29.22,South,180,0.0,3.0,72,0.00,,,0.00,meteohub,2013-02-07 11:44:00,
2013-02-07 05:49:00,30.0,22.1,29.22,North,0,0.0,3.0,72,0.00,,,0.00,meteohub,2013-02-07 11:49:00,
2013-02-07 05:54:00,30.0,22.1,29.25,NNE,22,0.0,0.0,72,0.00,,,0.00,meteohub,2013-02-07 11:54:00,
2013-02-07 05:59:00,30.0,22.1,29.25,North,0,0.0,0.0,72,0.00,,,0.00,meteohub,2013-02-07 11:59:00,
2013-02-07 06:04:00,30.0,22.1,29.25,NNE,22,0.0,0.0,72,0.00,,,0.00,meteohub,2013-02-07 12:04:00,
2013-02-07 06:09:00,30.0,21.7,29.22,North,0,0.0,0.0,71,0.00,,,0.00,meteohub,2013-02-07 12:09:00,
2013-02-07 06:14:00,30.0,21.7,29.22,NNE,22,2.0,0.0,71,0.00,,,0.00,meteohub,2013-02-07 12:14:00,
2013-02-07 06:19:00,30.0,22.1,29.22,ENE,68,0.0,0.0,72,0.00,,,0.00,meteohub,2013-02-07 12:19:00,
2013-02-07 06:25:00,30.0,22.1,29.22,NE,45,0.0,2.0,72,0.00,,,0.00,meteohub,2013-02-07 12:25:00,
2013-02-07 06:30:00,30.0,22.1,29.22,North,0,0.0,0.0,72,0.00,,,0.00,meteohub,2013-02-07 12:30:00,
2013-02-07 06:35:00,30.0,22.1,29.22,North,0,0.0,0.0,72,0.00,,,0.00,meteohub,2013-02-07 12:35:00,
2013-02-07 06:40:00,30.0,22.1,29.22,South,180,0.0,0.0,72,0.00,,,0.00,meteohub,2013-02-07 12:40:00,
2013-02-07 06:45:00,30.2,22.3,29.22,NE,45,0.0,0.0,72,0.00,,,0.00,meteohub,2013-02-07 12:45:00,
2013-02-07 06:50:00,30.2,22.3,29.22,NE,45,0.0,0.0,72,0.00,,,0.00,meteohub,2013-02-07 12:50:00,
2013-02-07 06:55:00,30.2,22.3,29.22,NE,45,0.0,0.0,72,0.00,,,0.00,meteohub,2013-02-07 12:55:00,
2013-02-07 07:00:00,30.4,22.5,29.22,NE,45,0.0,0.0,72,0.00,,,0.00,meteohub,2013-02-07 13:00:00,
2013-02-07 07:06:00,30.4,22.5,29.22,ENE,68,0.0,0.0,72,0.00,,,0.00,meteohub,2013-02-07 13:06:00,
2013-02-07 07:11:00,30.6,22.6,29.22,ESE,112,0.0,1.0,72,0.00,,,0.00,meteohub,2013-02-07 13:11:00,
2013-02-07 07:16:00,30.6,22.6,29.22,South,180,0.0,1.0,72,0.00,,,0.00,meteohub,2013-02-07 13:16:00,
2013-02-07 07:21:00,30.6,22.6,29.22,ESE,112,0.0,0.0,72,0.00,,,0.00,meteohub,2013-02-07 13:21:00,
2013-02-07 07:26:00,30.6,22.6,29.22,SE,135,2.0,2.0,72,0.00,,,0.00,meteohub,2013-02-07 13:26:00,
2013-02-07 07:31:00,30.7,22.8,29.22,East,90,0.0,3.0,72,0.00,,,0.00,meteohub,2013-02-07 13:31:00,
2013-02-07 07:36:00,31.1,23.2,29.22,East,90,0.0,3.0,72,0.00,,,0.00,meteohub,2013-02-07 13:36:00,
2013-02-07 07:41:00,31.5,23.5,29.22,ESE,112,1.0,2.0,72,0.00,,,0.00,meteohub,2013-02-07 13:41:00,
2013-02-07 07:46:00,31.8,23.9,29.22,ESE,112,0.0,2.0,72,0.00,,,0.00,meteohub,2013-02-07 13:46:00,
2013-02-07 07:51:00,32.0,24.1,29.22,SE,135,0.0,2.0,72,0.00,,,0.00,meteohub,2013-02-07 13:51:00,
2013-02-07 07:56:00,32.2,24.3,29.19,ESE,112,3.0,3.0,72,0.00,,,0.00,meteohub,2013-02-07 13:56:00,
2013-02-07 08:02:00,32.2,24.3,29.19,ESE,112,4.0,4.0,72,0.00,,,0.00,meteohub,2013-02-07 14:02:00,
2013-02-07 08:07:00,32.4,24.4,29.19,ESE,112,4.0,4.0,72,0.00,,,0.00,meteohub,2013-02-07 14:07:00,
2013-02-07 08:12:00,32.5,24.3,29.16,ESE,112,1.0,4.0,71,0.00,,,0.00,meteohub,2013-02-07 14:12:00,
2013-02-07 08:17:00,32.5,24.3,29.16,ESE,112,4.0,4.0,71,0.00,,,0.00,meteohub,2013-02-07 14:17:00,
2013-02-07 08:22:00,32.9,24.6,29.16,ESE,112,4.0,4.0,71,0.00,,,0.00,meteohub,2013-02-07 14:22:00,
2013-02-07 08:27:00,33.1,24.8,29.16,ESE,112,2.0,6.0,71,0.00,,,0.00,meteohub,2013-02-07 14:27:00,
2013-02-07 08:32:00,33.4,25.2,29.16,East,90,2.0,6.0,71,0.00,,,0.00,meteohub,2013-02-07 14:32:00,
2013-02-07 08:37:00,33.8,25.2,29.16,East,90,2.0,6.0,70,0.00,,,0.00,meteohub,2013-02-07 14:37:00,
2013-02-07 08:42:00,34.3,25.5,29.16,NE,45,2.0,3.0,70,0.00,,,0.00,meteohub,2013-02-07 14:42:00,
2013-02-07 08:47:00,35.1,25.9,29.16,East,90,2.0,4.0,69,0.00,,,0.00,meteohub,2013-02-07 14:47:00,
2013-02-07 08:52:00,35.6,25.7,29.16,East,90,2.0,6.0,67,0.00,,,0.00,meteohub,2013-02-07 14:52:00,
2013-02-07 08:57:00,36.1,26.2,29.16,ENE,68,2.0,6.0,67,0.00,,,0.00,meteohub,2013-02-07 14:57:00,
2013-02-07 09:02:00,36.3,26.1,29.16,NE,45,0.0,6.0,66,0.00,,,0.00,meteohub,2013-02-07 15:02:00,
2013-02-07 09:07:00,36.9,25.5,29.16,ENE,68,3.0,5.0,63,0.00,,,0.00,meteohub,2013-02-07 15:07:00,
2013-02-07 09:12:00,37.0,24.4,29.16,East,90,4.0,5.0,60,0.00,,,0.00,meteohub,2013-02-07 15:12:00,
2013-02-07 09:17:00,37.4,24.8,29.16,NE,45,0.0,6.0,60,0.00,,,0.00,meteohub,2013-02-07 15:17:00,
2013-02-07 09:22:00,37.6,25.3,29.16,East,90,3.0,6.0,61,0.00,,,0.00,meteohub,2013-02-07 15:22:00,
2013-02-07 09:28:00,37.9,24.4,29.16,NNE,22,2.0,6.0,58,0.00,,,0.00,meteohub,2013-02-07 15:28:00,
2013-02-07 09:33:00,38.1,25.2,29.16,ENE,68,1.0,5.0,59,0.00,,,0.00,meteohub,2013-02-07 15:33:00,
2013-02-07 09:38:00,38.3,24.8,29.16,ESE,112,4.0,5.0,58,0.00,,,0.00,meteohub,2013-02-07 15:38:00,
2013-02-07 09:43:00,38.8,25.7,29.16,East,90,4.0,5.0,59,0.00,,,0.00,meteohub,2013-02-07 15:43:00,
2013-02-07 09:48:00,39.4,25.9,29.16,NE,45,0.0,5.0,58,0.00,,,0.00,meteohub,2013-02-07 15:48:00,
2013-02-07 09:53:00,40.1,26.6,29.16,East,90,4.0,5.0,58,0.00,,,0.00,meteohub,2013-02-07 15:53:00,
2013-02-07 09:58:00,40.3,25.5,29.13,East,90,0.0,4.0,55,0.00,,,0.00,meteohub,2013-02-07 15:58:00,
2013-02-07 10:03:00,40.8,25.9,29.13,East,90,2.0,5.0,55,0.00,,,0.00,meteohub,2013-02-07 16:03:00,
2013-02-07 10:08:00,41.5,26.2,29.16,ESE,112,2.0,5.0,54,0.00,,,0.00,meteohub,2013-02-07 16:08:00,
2013-02-07 10:13:00,41.7,25.9,29.16,ESE,112,0.0,5.0,53,0.00,,,0.00,meteohub,2013-02-07 16:13:00,
2013-02-07 10:18:00,41.5,25.7,29.16,East,90,0.0,6.0,53,0.00,,,0.00,meteohub,2013-02-07 16:18:00,
2013-02-07 10:24:00,41.5,25.7,29.13,NNE,22,1.0,6.0,53,0.00,,,0.00,meteohub,2013-02-07 16:24:00,
2013-02-07 10:29:00,41.9,26.1,29.13,NE,45,0.0,6.0,53,0.00,,,0.00,meteohub,2013-02-07 16:29:00,
2013-02-07 10:34:00,42.1,26.2,29.13,NE,45,0.0,6.0,53,0.00,,,0.00,meteohub,2013-02-07 16:34:00,
2013-02-07 10:39:00,42.1,25.7,29.13,ESE,112,2.0,6.0,52,0.00,,,0.00,meteohub,2013-02-07 16:39:00,
2013-02-07 10:44:00,42.4,26.1,29.13,East,90,0.0,6.0,52,0.00,,,0.00,meteohub,2013-02-07 16:44:00,
2013-02-07 10:49:00,42.6,25.9,29.13,East,90,5.0,5.0,51,0.00,,,0.00,meteohub,2013-02-07 16:49:00,
2013-02-07 10:54:00,42.6,25.3,29.13,SE,135,5.0,5.0,50,0.00,,,0.00,meteohub,2013-02-07 16:54:00,
2013-02-07 10:59:00,42.8,25.5,29.13,East,90,4.0,6.0,50,0.00,,,0.00,meteohub,2013-02-07 16:59:00,
2013-02-07 11:04:00,42.8,25.5,29.13,ESE,112,3.0,6.0,50,0.00,,,0.00,meteohub,2013-02-07 17:04:00,
2013-02-07 11:09:00,43.3,26.4,29.10,NE,45,2.0,6.0,51,0.00,,,0.00,meteohub,2013-02-07 17:09:00,
2013-02-07 11:15:00,43.5,26.2,29.10,ESE,112,4.0,6.0,50,0.00,,,0.00,meteohub,2013-02-07 17:15:00,
2013-02-07 11:20:00,43.5,26.2,29.10,East,90,3.0,5.0,50,0.00,,,0.00,meteohub,2013-02-07 17:20:00,
2013-02-07 11:25:00,44.1,26.6,29.10,NE,45,0.0,5.0,50,0.00,,,0.00,meteohub,2013-02-07 17:25:00,
2013-02-07 11:30:00,44.2,26.8,29.10,ESE,112,3.0,5.0,50,0.00,,,0.00,meteohub,2013-02-07 17:30:00,
2013-02-07 11:35:00,44.6,26.6,29.10,East,90,1.0,5.0,49,0.00,,,0.00,meteohub,2013-02-07 17:35:00,
2013-02-07 11:40:00,44.6,26.6,29.10,ENE,68,0.0,5.0,49,0.00,,,0.00,meteohub,2013-02-07 17:40:00,
2013-02-07 11:45:00,44.8,26.8,29.10,SE,135,3.0,6.0,49,0.00,,,0.00,meteohub,2013-02-07 17:45:00,
2013-02-07 11:50:00,45.1,27.1,29.10,ESE,112,0.0,6.0,49,0.00,,,0.00,meteohub,2013-02-07 17:50:00,
2013-02-07 11:55:00,45.1,27.1,29.10,ESE,112,4.0,6.0,49,0.00,,,0.00,meteohub,2013-02-07 17:55:00,
2013-02-07 12:00:00,45.3,27.3,29.10,East,90,3.0,6.0,49,0.00,,,0.00,meteohub,2013-02-07 18:00:00,
2013-02-07 12:05:00,45.5,27.0,29.10,ESE,112,1.0,6.0,48,0.00,,,0.00,meteohub,2013-02-07 18:05:00,
2013-02-07 12:10:00,45.5,27.0,29.07,East,90,5.0,7.0,48,0.00,,,0.00,meteohub,2013-02-07 18:10:00,
2013-02-07 12:16:00,45.9,27.3,29.07,ESE,112,5.0,7.0,48,0.00,,,0.00,meteohub,2013-02-07 18:16:00,
2013-02-07 12:21:00,46.0,27.0,29.07,SE,135,1.0,7.0,47,0.00,,,0.00,meteohub,2013-02-07 18:21:00,
2013-02-07 12:26:00,46.2,27.1,29.04,NW,315,2.0,6.0,47,0.00,,,0.00,meteohub,2013-02-07 18:26:00,
2013-02-07 12:31:00,46.2,27.1,29.04,South,180,0.0,6.0,47,0.00,,,0.00,meteohub,2013-02-07 18:31:00,
2013-02-07 12:36:00,46.2,26.6,29.04,East,90,4.0,6.0,46,0.00,,,0.00,meteohub,2013-02-07 18:36:00,
2013-02-07 12:41:00,46.4,27.3,29.01,SSE,158,0.0,6.0,47,0.00,,,0.00,meteohub,2013-02-07 18:41:00,
2013-02-07 12:46:00,46.6,27.0,29.01,South,180,3.0,6.0,46,0.00,,,0.00,meteohub,2013-02-07 18:46:00,
2013-02-07 12:51:00,46.8,27.7,29.01,East,90,4.0,6.0,47,0.00,,,0.00,meteohub,2013-02-07 18:51:00,
2013-02-07 12:56:00,46.8,26.6,29.04,SE,135,9.0,9.0,45,0.00,,,0.00,meteohub,2013-02-07 18:56:00,
2013-02-07 13:02:00,46.8,26.6,29.04,South,180,2.0,9.0,45,0.00,,,0.00,meteohub,2013-02-07 19:02:00,
2013-02-07 13:07:00,46.9,26.8,29.04,ESE,112,6.0,9.0,45,0.00,,,0.00,meteohub,2013-02-07 19:07:00,
2013-02-07 13:12:00,46.9,26.8,29.04,SE,135,0.0,9.0,45,0.00,,,0.00,meteohub,2013-02-07 19:12:00,
2013-02-07 13:17:00,47.3,27.7,29.04,SSW,202,1.0,6.0,46,0.00,,,0.00,meteohub,2013-02-07 19:17:00,
2013-02-07 13:22:00,47.3,26.6,29.04,NE,45,0.0,7.0,44,0.00,,,0.00,meteohub,2013-02-07 19:22:00,
2013-02-07 13:27:00,47.3,26.6,29.01,ESE,112,4.0,7.0,44,0.00,,,0.00,meteohub,2013-02-07 19:27:00,
2013-02-07 13:32:00,47.3,27.1,29.01,ESE,112,6.0,6.0,45,0.00,,,0.00,meteohub,2013-02-07 19:32:00,
2013-02-07 13:37:00,47.5,27.9,29.01,SE,135,0.0,6.0,46,0.00,,,0.00,meteohub,2013-02-07 19:37:00,
2013-02-07 13:42:00,47.5,27.3,29.01,South,180,6.0,6.0,45,0.00,,,0.00,meteohub,2013-02-07 19:42:00,
2013-02-07 13:47:00,47.7,27.3,29.01,East,90,0.0,6.0,45,0.00,,,0.00,meteohub,2013-02-07 19:47:00,
2013-02-07 13:52:00,47.7,27.9,29.01,NE,45,4.0,6.0,46,0.00,,,0.00,meteohub,2013-02-07 19:52:00,
2013-02-07 13:57:00,47.8,27.5,29.01,ESE,112,1.0,6.0,45,0.00,,,0.00,meteohub,2013-02-07 19:57:00,
2013-02-07 14:02:00,47.8,27.5,29.01,SSE,158,0.0,5.0,45,0.00,,,0.00,meteohub,2013-02-07 20:02:00,
2013-02-07 14:07:00,48.0,27.7,29.01,SSE,158,2.0,5.0,45,0.00,,,0.00,meteohub,2013-02-07 20:07:00,
2013-02-07 14:12:00,48.2,27.9,28.98,East,90,0.0,6.0,45,0.00,,,0.00,meteohub,2013-02-07 20:12:00,
2013-02-07 14:17:00,48.2,27.9,28.98,East,90,4.0,6.0,45,0.00,,,0.00,meteohub,2013-02-07 20:17:00,
2013-02-07 14:22:00,48.2,27.9,28.98,ENE,68,0.0,6.0,45,0.00,,,0.00,meteohub,2013-02-07 20:22:00,
2013-02-07 14:27:00,48.2,27.9,28.98,East,90,5.0,6.0,45,0.00,,,0.00,meteohub,2013-02-07 20:27:00,
2013-02-07 14:32:00,48.0,28.2,28.98,East,90,0.0,5.0,46,0.00,,,0.00,meteohub,2013-02-07 20:32:00,
2013-02-07 14:37:00,48.2,27.9,28.98,ENE,68,1.0,5.0,45,0.00,,,0.00,meteohub,2013-02-07 20:37:00,
2013-02-07 14:42:00,48.2,27.3,28.98,ESE,112,3.0,5.0,44,0.00,,,0.00,meteohub,2013-02-07 20:42:00,
2013-02-07 14:47:00,48.2,27.9,28.98,SE,135,4.0,5.0,45,0.00,,,0.00,meteohub,2013-02-07 20:47:00,
2013-02-07 14:52:00,48.2,27.9,28.98,East,90,0.0,6.0,45,0.00,,,0.00,meteohub,2013-02-07 20:52:00,
2013-02-07 14:57:00,48.2,27.3,28.98,ESE,112,0.0,6.0,44,0.00,,,0.00,meteohub,2013-02-07 20:57:00,
2013-02-07 15:02:00,48.2,27.3,28.98,WNW,292,6.0,6.0,44,0.00,,,0.00,meteohub,2013-02-07 21:02:00,
2013-02-07 15:07:00,48.2,27.3,28.98,ESE,112,3.0,6.0,44,0.00,,,0.00,meteohub,2013-02-07 21:07:00,
2013-02-07 15:12:00,48.4,28.0,28.98,ESE,112,0.0,6.0,45,0.00,,,0.00,meteohub,2013-02-07 21:12:00,
2013-02-07 15:17:00,48.4,27.5,28.98,East,90,2.0,6.0,44,0.00,,,0.00,meteohub,2013-02-07 21:17:00,
2013-02-07 15:22:00,48.4,28.0,28.98,ESE,112,3.0,6.0,45,0.00,,,0.00,meteohub,2013-02-07 21:22:00,
2013-02-07 15:27:00,48.4,28.0,28.98,SSW,202,0.0,5.0,45,0.00,,,0.00,meteohub,2013-02-07 21:27:00,
2013-02-07 15:32:00,48.2,27.9,28.98,ESE,112,0.0,5.0,45,0.00,,,0.00,meteohub,2013-02-07 21:32:00,
2013-02-07 15:37:00,48.2,27.9,28.98,ESE,112,0.0,4.0,45,0.00,,,0.00,meteohub,2013-02-07 21:37:00,
2013-02-07 15:43:00,48.2,27.3,28.98,ESE,112,1.0,4.0,44,0.00,,,0.00,meteohub,2013-02-07 21:43:00,
2013-02-07 15:48:00,48.2,27.9,28.98,East,90,0.0,6.0,45,0.00,,,0.00,meteohub,2013-02-07 21:48:00,
2013-02-07 15:53:00,48.0,28.2,28.98,ESE,112,3.0,6.0,46,0.00,,,0.00,meteohub,2013-02-07 21:53:00,
2013-02-07 15:58:00,48.0,27.7,28.98,East,90,0.0,6.0,45,0.00,,,0.00,meteohub,2013-02-07 21:58:00,
2013-02-07 16:03:00,48.0,28.2,28.98,NE,45,0.0,3.0,46,0.00,,,0.00,meteohub,2013-02-07 22:03:00,
2013-02-07 16:08:00,47.8,28.0,28.98,East,90,0.0,5.0,46,0.00,,,0.00,meteohub,2013-02-07 22:08:00,
2013-02-07 16:13:00,47.7,27.9,28.95,ESE,112,0.0,5.0,46,0.00,,,0.00,meteohub,2013-02-07 22:13:00,
2013-02-07 16:18:00,47.5,28.2,28.95,East,90,0.0,5.0,47,0.00,,,0.00,meteohub,2013-02-07 22:18:00,
2013-02-07 16:23:00,47.3,28.2,28.95,East,90,0.0,0.0,47,0.00,,,0.00,meteohub,2013-02-07 22:23:00,
2013-02-07 16:28:00,46.9,27.9,28.95,East,90,0.0,0.0,47,0.00,,,0.00,meteohub,2013-02-07 22:28:00,
2013-02-07 16:34:00,46.8,27.7,28.95,East,90,0.0,0.0,47,0.00,,,0.00,meteohub,2013-02-07 22:34:00,
2013-02-07 16:39:00,46.4,27.3,28.95,ENE,68,0.0,0.0,47,0.00,,,0.00,meteohub,2013-02-07 22:39:00,
2013-02-07 16:44:00,46.0,27.5,28.95,East,90,0.0,0.0,48,0.00,,,0.00,meteohub,2013-02-07 22:44:00,
2013-02-07 16:49:00,45.7,27.1,28.95,East,90,0.0,0.0,48,0.00,,,0.00,meteohub,2013-02-07 22:49:00,
2013-02-07 16:54:00,45.3,26.8,28.95,ESE,112,0.0,0.0,48,0.00,,,0.00,meteohub,2013-02-07 22:54:00,
2013-02-07 16:59:00,45.1,26.6,28.95,ESE,112,0.0,0.0,48,0.00,,,0.00,meteohub,2013-02-07 22:59:00,
2013-02-07 17:04:00,44.8,26.4,28.95,East,90,0.0,0.0,48,0.00,,,0.00,meteohub,2013-02-07 23:04:00,
2013-02-07 17:09:00,44.4,26.4,28.95,East,90,0.0,0.0,49,0.00,,,0.00,meteohub,2013-02-07 23:09:00,
2013-02-07 17:15:00,43.9,26.1,28.95,East,90,0.0,0.0,49,0.00,,,0.00,meteohub,2013-02-07 23:15:00,
2013-02-07 17:20:00,43.5,26.2,28.95,ENE,68,0.0,0.0,50,0.00,,,0.00,meteohub,2013-02-07 23:20:00,
2013-02-07 17:25:00,43.3,26.1,28.95,SSE,158,0.0,0.0,50,0.00,,,0.00,meteohub,2013-02-07 23:25:00,
2013-02-07 17:30:00,43.2,25.9,28.95,ENE,68,0.0,0.0,50,0.00,,,0.00,meteohub,2013-02-07 23:30:00,
2013-02-07 17:35:00,42.8,25.5,28.95,ENE,68,0.0,0.0,50,0.00,,,0.00,meteohub,2013-02-07 23:35:00,
2013-02-07 17:40:00,42.6,25.9,28.92,ESE,112,0.0,0.0,51,0.00,,,0.00,meteohub,2013-02-07 23:40:00,
2013-02-07 17:45:00,42.3,25.5,28.92,ENE,68,0.0,0.0,51,0.00,,,0.00,meteohub,2013-02-07 23:45:00,
2013-02-07 17:50:00,42.1,25.3,28.92,NNE,22,0.0,0.0,51,0.00,,,0.00,meteohub,2013-02-07 23:50:00,
2013-02-07 17:55:00,41.7,25.5,28.92,SE,135,0.0,0.0,52,0.00,,,0.00,meteohub,2013-02-07 23:55:00,
2013-02-07 18:00:00,41.7,25.5,28.92,SSE,158,0.0,0.0,52,0.00,,,0.00,meteohub,2013-02-08 00:00:00,
2013-02-07 18:05:00,41.4,25.2,28.92,ESE,112,0.0,0.0,52,0.00,,,0.00,meteohub,2013-02-08 00:05:00,
2013-02-07 18:11:00,41.2,25.0,28.92,SSE,158,0.0,0.0,52,0.00,,,0.00,meteohub,2013-02-08 00:11:00,
2013-02-07 18:16:00,41.0,25.2,28.92,SSE,158,0.0,0.0,53,0.00,,,0.00,meteohub,2013-02-08 00:16:00,
2013-02-07 18:21:00,40.8,25.0,28.92,SSE,158,0.0,0.0,53,0.00,,,0.00,meteohub,2013-02-08 00:21:00,
2013-02-07 18:26:00,40.8,25.0,28.92,SSE,158,0.0,0.0,53,0.00,,,0.00,meteohub,2013-02-08 00:26:00,
2013-02-07 18:31:00,40.6,25.3,28.92,SE,135,0.0,0.0,54,0.00,,,0.00,meteohub,2013-02-08 00:31:00,
2013-02-07 18:36:00,40.6,25.3,28.92,ESE,112,0.0,0.0,54,0.00,,,0.00,meteohub,2013-02-08 00:36:00,
2013-02-07 18:41:00,40.6,25.3,28.92,South,180,0.0,0.0,54,0.00,,,0.00,meteohub,2013-02-08 00:41:00,
2013-02-07 18:46:00,40.6,25.3,28.92,SSE,158,0.0,0.0,54,0.00,,,0.00,meteohub,2013-02-08 00:46:00,
2013-02-07 18:51:00,40.6,25.3,28.92,SE,135,0.0,0.0,54,0.00,,,0.00,meteohub,2013-02-08 00:51:00,
2013-02-07 18:56:00,40.6,25.3,28.92,East,90,0.0,0.0,54,0.00,,,0.00,meteohub,2013-02-08 00:56:00,
2013-02-07 19:01:00,40.6,25.7,28.92,NE,45,0.0,1.0,55,0.00,,,0.00,meteohub,2013-02-08 01:01:00,
2013-02-07 19:07:00,40.5,25.5,28.92,East,90,0.0,1.0,55,0.00,,,0.00,meteohub,2013-02-08 01:07:00,
2013-02-07 19:12:00,40.5,25.5,28.92,East,90,0.0,1.0,55,0.00,,,0.00,meteohub,2013-02-08 01:12:00,
2013-02-07 19:17:00,40.3,25.5,28.92,East,90,0.0,0.0,55,0.00,,,0.00,meteohub,2013-02-08 01:17:00,
2013-02-07 19:22:00,40.3,25.9,28.92,East,90,0.0,2.0,56,0.00,,,0.00,meteohub,2013-02-08 01:22:00,
2013-02-07 19:27:00,40.1,25.7,28.89,ESE,112,0.0,2.0,56,0.00,,,0.00,meteohub,2013-02-08 01:27:00,
2013-02-07 19:32:00,40.1,25.7,28.89,South,180,0.0,2.0,56,0.00,,,0.00,meteohub,2013-02-08 01:32:00,
2013-02-07 19:37:00,40.1,25.7,28.89,East,90,0.0,0.0,56,0.00,,,0.00,meteohub,2013-02-08 01:37:00,
2013-02-07 19:42:00,39.9,25.5,28.89,ENE,68,0.0,0.0,56,0.00,,,0.00,meteohub,2013-02-08 01:42:00,
2013-02-07 19:47:00,39.7,25.9,28.89,ENE,68,0.0,0.0,57,0.00,,,0.00,meteohub,2013-02-08 01:47:00,
2013-02-07 19:52:00,39.7,25.9,28.89,East,90,0.0,0.0,57,0.00,,,0.00,meteohub,2013-02-08 01:52:00,
2013-02-07 19:57:00,39.7,25.9,28.89,East,90,0.0,0.0,57,0.00,,,0.00,meteohub,2013-02-08 01:57:00,
2013-02-07 20:02:00,39.6,25.7,28.89,East,90,0.0,0.0,57,0.00,,,0.00,meteohub,2013-02-08 02:02:00,
2013-02-07 20:07:00,39.7,25.9,28.89,East,90,1.0,3.0,57,0.00,,,0.00,meteohub,2013-02-08 02:07:00,
2013-02-07 20:12:00,40.1,26.6,28.89,ESE,112,0.0,3.0,58,0.00,,,0.00,meteohub,2013-02-08 02:12:00,
2013-02-07 20:17:00,40.3,27.1,28.89,SE,135,0.0,3.0,59,0.00,,,0.00,meteohub,2013-02-08 02:17:00,
2013-02-07 20:22:00,40.5,27.3,28.89,East,90,1.0,2.0,59,0.00,,,0.00,meteohub,2013-02-08 02:22:00,
2013-02-07 20:27:00,40.5,27.7,28.89,SE,135,0.0,3.0,60,0.00,,,0.00,meteohub,2013-02-08 02:27:00,
2013-02-07 20:32:00,41.0,28.2,28.89,ESE,112,4.0,4.0,60,0.00,,,0.00,meteohub,2013-02-08 02:32:00,
2013-02-07 20:37:00,41.0,28.2,28.89,ESE,112,0.0,5.0,60,0.00,,,0.00,meteohub,2013-02-08 02:37:00,
2013-02-07 20:42:00,41.2,28.0,28.86,SE,135,3.0,5.0,59,0.00,,,0.00,meteohub,2013-02-08 02:42:00,
2013-02-07 20:47:00,41.4,28.2,28.86,ESE,112,4.0,5.0,59,0.00,,,0.00,meteohub,2013-02-08 02:47:00,
2013-02-07 20:52:00,41.4,27.7,28.86,East,90,0.0,5.0,58,0.00,,,0.00,meteohub,2013-02-08 02:52:00,
2013-02-07 20:57:00,41.4,28.2,28.86,SE,135,0.0,5.0,59,0.00,,,0.00,meteohub,2013-02-08 02:57:00,
2013-02-07 21:02:00,41.4,28.2,28.86,SE,135,0.0,5.0,59,0.00,,,0.00,meteohub,2013-02-08 03:02:00,
2013-02-07 21:07:00,41.2,27.5,28.86,ESE,112,0.0,4.0,58,0.00,,,0.00,meteohub,2013-02-08 03:07:00,
2013-02-07 21:12:00,41.2,27.5,28.83,ESE,112,0.0,4.0,58,0.00,,,0.00,meteohub,2013-02-08 03:12:00,
2013-02-07 21:18:00,41.0,27.3,28.83,East,90,0.0,3.0,58,0.00,,,0.00,meteohub,2013-02-08 03:18:00,
2013-02-07 21:23:00,40.8,27.7,28.83,SE,135,0.0,4.0,59,0.00,,,0.00,meteohub,2013-02-08 03:23:00,
2013-02-07 21:28:00,40.6,27.5,28.86,SSE,158,0.0,4.0,59,0.00,,,0.00,meteohub,2013-02-08 03:28:00,
2013-02-07 21:33:00,40.5,27.3,28.86,SSE,158,0.0,0.0,59,0.00,,,0.00,meteohub,2013-02-08 03:33:00,
2013-02-07 21:38:00,40.3,27.1,28.86,ESE,112,0.0,0.0,59,0.00,,,0.00,meteohub,2013-02-08 03:38:00,
2013-02-07 21:43:00,39.9,26.8,28.86,SE,135,0.0,0.0,59,0.00,,,0.00,meteohub,2013-02-08 03:43:00,
2013-02-07 21:48:00,39.9,27.1,28.86,SE,135,0.0,0.0,60,0.00,,,0.00,meteohub,2013-02-08 03:48:00,
2013-02-07 21:53:00,39.7,27.0,28.86,South,180,0.0,1.0,60,0.00,,,0.00,meteohub,2013-02-08 03:53:00,
2013-02-07 21:58:00,39.7,27.0,28.83,SSE,158,0.0,1.0,60,0.00,,,0.00,meteohub,2013-02-08 03:58:00,
2013-02-07 22:04:00,39.6,26.8,28.83,ESE,112,0.0,1.0,60,0.00,,,0.00,meteohub,2013-02-08 04:04:00,
2013-02-07 22:09:00,39.6,27.3,28.83,SE,135,0.0,1.0,61,0.00,,,0.00,meteohub,2013-02-08 04:09:00,
2013-02-07 22:14:00,39.4,27.5,28.83,ESE,112,0.0,2.0,62,0.00,,,0.00,meteohub,2013-02-08 04:14:00,
2013-02-07 22:19:00,39.2,27.7,28.83,SSE,158,0.0,3.0,63,0.00,,,0.00,meteohub,2013-02-08 04:19:00,
2013-02-07 22:24:00,39.2,27.3,28.80,SSE,158,0.0,3.0,62,0.00,,,0.00,meteohub,2013-02-08 04:24:00,
2013-02-07 22:29:00,39.0,27.5,28.80,SE,135,0.0,3.0,63,0.00,,,0.00,meteohub,2013-02-08 04:29:00,
2013-02-07 22:34:00,39.0,27.5,28.80,SE,135,5.0,0.0,63,0.00,,,0.00,meteohub,2013-02-08 04:34:00,
2013-02-07 22:39:00,38.8,27.7,28.80,SE,135,0.0,1.0,64,0.00,,,0.00,meteohub,2013-02-08 04:39:00,
2013-02-07 22:44:00,39.0,28.6,28.80,South,180,0.0,5.0,66,0.00,,,0.00,meteohub,2013-02-08 04:44:00,
2013-02-07 22:49:00,39.0,28.2,28.80,South,180,0.0,5.0,65,0.00,,,0.00,meteohub,2013-02-08 04:49:00,
2013-02-07 22:54:00,39.2,28.4,28.80,South,180,0.0,4.0,65,0.00,,,0.00,meteohub,2013-02-08 04:54:00,
2013-02-07 23:00:00,39.2,28.4,28.80,SSE,158,0.0,2.0,65,0.00,,,0.00,meteohub,2013-02-08 05:00:00,
2013-02-07 23:01:00,39.2,28.4,28.80,SSE,158,0.0,2.0,65,0.00,,,0.00,meteohub,2013-02-08 05:01:00,
2013-02-07 23:02:00,39.2,28.4,28.80,SSE,158,0.0,2.0,65,0.00,,,0.00,meteohub,2013-02-08 05:02:00,
2013-02-07 23:08:00,39.4,28.6,28.80,SSE,158,0.0,2.0,65,0.00,,,0.00,meteohub,2013-02-08 05:08:00,
2013-02-07 23:13:00,39.4,28.6,28.80,South,180,2.0,2.0,65,0.00,,,0.00,meteohub,2013-02-08 05:13:00,
2013-02-07 23:18:00,39.4,28.6,28.80,ESE,112,6.0,6.0,65,0.00,,,0.00,meteohub,2013-02-08 05:18:00,
2013-02-07 23:23:00,39.4,28.9,28.80,South,180,0.0,6.0,66,0.00,,,0.00,meteohub,2013-02-08 05:23:00,
2013-02-07 23:28:00,39.6,29.1,28.80,South,180,0.0,6.0,66,0.00,,,0.00,meteohub,2013-02-08 05:28:00,
2013-02-07 23:33:00,39.9,29.8,28.80,SW,225,0.0,6.0,67,0.00,,,0.00,meteohub,2013-02-08 05:33:00,
2013-02-07 23:38:00,39.9,29.5,28.80,South,180,1.0,4.0,66,0.00,,,0.00,meteohub,2013-02-08 05:38:00,
2013-02-07 23:43:00,40.1,30.0,28.80,South,180,0.0,4.0,67,0.00,,,0.00,meteohub,2013-02-08 05:43:00,
2013-02-07 23:49:00,40.3,30.2,28.80,SSW,202,0.0,4.0,67,0.00,,,0.00,meteohub,2013-02-08 05:49:00,
2013-02-07 23:54:00,40.3,30.2,28.77,South,180,3.0,4.0,67,0.00,,,0.00,meteohub,2013-02-08 05:54:00,
2013-02-07 23:59:00,40.3,30.2,28.77,SSE,158,0.0,4.0,67,0.00,,,0.00,meteohub,2013-02-08 05:59:00,